Time;durP1;ratioP1;P1;durP2;ratioP2;P2;SDS_P1;SDS_P2;PMS_P1;PMS_P2;Temp;Humidity;BMP_temperature;BMP_pressure;BME280_temperature;BME280_humidity;BME280_pressure;Samples;Min_cycle;Max_cycle;Signal;HPM_P1;HPM_P2
2022/04/12 00:00:29;;;;;;;15.90;7.95;;;13.20;92.30;;;;;;5025066;28;20097;-70
2022/04/12 00:02:55;;;;;;;20.33;8.85;;;13.20;92.20;;;;;;5025105;28;20032;-70
2022/04/12 00:05:21;;;;;;;19.38;9.80;;;13.20;91.80;;;;;;5008259;28;20049;-71
2022/04/12 00:07:46;;;;;;;15.27;9.93;;;13.20;91.70;;;;;;5008531;28;20205;-70
2022/04/12 00:10:13;;;;;;;16.48;9.10;;;13.10;91.80;;;;;;5008396;28;20018;-71
2022/04/12 00:12:39;;;;;;;15.30;9.52;;;13.10;91.80;;;;;;5043861;28;20030;-71
2022/04/12 00:15:06;;;;;;;18.20;9.57;;;13.20;91.90;;;;;;5044242;28;20100;-71
2022/04/12 00:20:19;;;;;;;17.23;9.52;;;13.10;91.70;;;;;;5044887;28;20024;-71
2022/04/12 00:22:44;;;;;;;21.55;9.65;;;13.00;92.00;;;;;;5027946;28;20028;-71
2022/04/12 00:25:11;;;;;;;14.57;9.20;;;12.90;92.20;;;;;;5045835;28;20029;-71
2022/04/12 00:27:39;;;;;;;20.90;10.30;;;12.90;92.30;;;;;;5045372;28;20025;-71
2022/04/12 00:30:07;;;;;;;18.55;9.90;;;12.90;92.40;;;;;;5027970;28;20067;-71
2022/04/12 00:32:33;;;;;;;17.13;9.55;;;12.80;92.50;;;;;;5027857;28;20104;-71
2022/04/12 00:34:59;;;;;;;17.77;9.32;;;12.80;92.70;;;;;;5043907;28;20028;-71
2022/04/12 00:37:25;;;;;;;18.83;9.20;;;12.80;92.60;;;;;;5044041;28;20091;-72
2022/04/12 00:39:52;;;;;;;18.05;9.27;;;12.80;92.70;;;;;;5045013;28;20021;-71
2022/04/12 00:42:18;;;;;;;17.50;9.15;;;12.70;92.90;;;;;;5027782;28;20022;-71
2022/04/12 00:44:44;;;;;;;17.52;9.07;;;12.70;93.10;;;;;;5043539;28;20068;-71
2022/04/12 00:47:10;;;;;;;17.65;9.32;;;12.70;93.10;;;;;;5044927;28;20025;-71
2022/04/12 00:49:35;;;;;;;17.33;8.85;;;12.70;93.10;;;;;;5043719;28;20471;-71
2022/04/12 00:52:02;;;;;;;15.60;8.73;;;12.70;93.10;;;;;;5044736;28;20083;-71
2022/04/12 00:54:28;;;;;;;15.73;9.27;;;12.70;93.10;;;;;;5027103;28;20339;-71
2022/04/12 00:56:54;;;;;;;16.30;10.02;;;12.70;93.00;;;;;;5043366;28;20025;-71
2022/04/12 00:59:20;;;;;;;13.93;9.32;;;12.70;93.00;;;;;;5026950;28;20021;-71
2022/04/12 01:01:46;;;;;;;17.20;9.80;;;12.80;92.90;;;;;;5043427;28;20022;-71
2022/04/12 01:04:12;;;;;;;17.48;9.30;;;12.90;92.70;;;;;;5043776;28;20032;-71
2022/04/12 01:06:38;;;;;;;18.75;9.25;;;13.00;92.60;;;;;;5043317;28;20331;-71
2022/04/12 01:09:05;;;;;;;19.52;8.77;;;13.00;92.50;;;;;;5043402;28;20090;-71
2022/04/12 01:11:33;;;;;;;13.88;9.10;;;12.90;92.50;;;;;;5032892;28;20022;-71
2022/04/12 01:13:59;;;;;;;13.25;8.60;;;12.80;92.60;;;;;;5007056;28;20034;-71
2022/04/12 01:16:25;;;;;;;19.70;9.45;;;12.70;92.80;;;;;;5006889;28;20025;-71
2022/04/12 01:18:51;;;;;;;19.98;9.85;;;12.50;93.00;;;;;;5007086;28;20045;-71
2022/04/12 01:21:17;;;;;;;18.42;8.80;;;12.50;93.30;;;;;;5024971;28;20029;-71
2022/04/12 01:24:03;;;;;;;19.67;9.90;;;12.50;93.50;;;;;;5006954;28;20317;-71
2022/04/12 01:26:29;;;;;;;17.20;8.80;;;12.40;93.60;;;;;;4993439;28;20025;-71
2022/04/12 01:28:56;;;;;;;17.90;8.88;;;12.30;93.70;;;;;;5022946;28;20268;-71
2022/04/12 01:31:25;;;;;;;21.35;9.35;;;12.20;93.80;;;;;;5024303;28;20021;-71
2022/04/12 01:33:51;;;;;;;15.38;8.18;;;12.20;94.00;;;;;;5028861;28;20080;-71
2022/04/12 01:36:18;;;;;;;12.57;8.13;;;12.10;94.30;;;;;;5026731;28;20048;-71
2022/04/12 01:38:43;;;;;;;18.63;7.78;;;11.90;94.60;;;;;;5026615;28;20092;-70
2022/04/12 01:41:09;;;;;;;17.05;8.20;;;11.90;94.70;;;;;;5044337;28;20199;-71
2022/04/12 01:43:35;;;;;;;15.05;8.23;;;11.70;94.90;;;;;;5026578;28;20021;-71
2022/04/12 01:46:01;;;;;;;14.50;8.15;;;11.60;95.20;;;;;;5042191;28;20029;-71
2022/04/12 01:48:27;;;;;;;24.48;8.93;;;11.60;95.20;;;;;;5042830;28;20056;-71
2022/04/12 01:50:53;;;;;;;18.92;9.15;;;11.70;95.30;;;;;;5040990;28;20021;-71
2022/04/12 01:53:18;;;;;;;18.50;9.00;;;11.70;95.30;;;;;;5043469;28;20361;-71
2022/04/12 01:55:44;;;;;;;16.00;8.10;;;11.70;95.30;;;;;;5026184;28;20028;-71
2022/04/12 01:58:10;;;;;;;15.23;7.80;;;11.60;95.30;;;;;;5023052;28;20021;-71
2022/04/12 02:00:36;;;;;;;20.40;8.55;;;11.60;95.30;;;;;;5006585;28;20368;-71
2022/04/12 02:03:03;;;;;;;15.02;8.27;;;11.50;95.40;;;;;;5022770;28;20085;-71
2022/04/12 02:05:28;;;;;;;14.48;8.25;;;11.40;95.50;;;;;;5023388;28;20021;-71
2022/04/12 02:07:54;;;;;;;17.85;9.02;;;11.40;95.70;;;;;;5006608;28;20067;-71
2022/04/12 02:10:22;;;;;;;14.60;8.40;;;11.50;95.80;;;;;;5006640;28;20296;-71
2022/04/12 02:12:48;;;;;;;13.15;8.05;;;11.40;95.90;;;;;;5041577;28;20025;-71
2022/04/12 02:15:13;;;;;;;16.10;7.80;;;11.30;96.10;;;;;;5025970;28;20070;-71
2022/04/12 02:17:39;;;;;;;14.30;8.15;;;11.30;96.40;;;;;;5025898;28;20025;-71
2022/04/12 02:20:05;;;;;;;15.32;7.93;;;11.30;96.60;;;;;;5025979;28;20021;-71
2022/04/12 02:22:31;;;;;;;15.60;7.57;;;11.20;96.70;;;;;;5043886;28;20301;-71
2022/04/12 02:24:57;;;;;;;19.98;7.43;;;11.20;96.80;;;;;;5042544;28;20037;-71
2022/04/12 02:27:22;;;;;;;13.38;7.88;;;11.30;96.90;;;;;;5026129;28;20208;-71
2022/04/12 02:29:48;;;;;;;15.82;7.65;;;11.20;97.10;;;;;;5025819;28;20018;-71
2022/04/12 02:32:14;;;;;;;12.73;6.93;;;11.20;97.30;;;;;;5042637;28;20033;-71
2022/04/12 02:34:40;;;;;;;15.52;7.70;;;11.10;97.50;;;;;;5042801;28;20247;-71
2022/04/12 02:37:06;;;;;;;12.70;7.07;;;11.10;97.70;;;;;;5026092;28;20084;-71
2022/04/12 02:39:31;;;;;;;13.93;8.02;;;11.20;97.80;;;;;;5025859;28;20395;-71
2022/04/12 02:41:57;;;;;;;16.70;8.32;;;11.20;97.80;;;;;;5025810;28;20048;-71
2022/04/12 02:44:23;;;;;;;18.95;8.55;;;11.30;97.70;;;;;;5026234;28;20085;-71
2022/04/12 02:46:48;;;;;;;20.15;9.05;;;11.40;97.70;;;;;;5021989;28;20317;-71
2022/04/12 02:49:14;;;;;;;14.02;8.63;;;11.40;97.60;;;;;;5023885;28;20030;-71
2022/04/12 02:51:40;;;;;;;14.20;8.20;;;11.40;97.60;;;;;;5004062;28;20022;-71
2022/04/12 02:54:05;;;;;;;18.67;8.30;;;11.40;97.60;;;;;;5006324;28;20033;-71
2022/04/12 02:56:31;;;;;;;20.38;8.50;;;11.30;97.70;;;;;;5022592;28;20017;-71
2022/04/12 02:58:57;;;;;;;18.25;9.75;;;11.20;98.00;;;;;;5041843;28;20027;-71
2022/04/12 03:01:23;;;;;;;14.85;8.88;;;11.20;98.10;;;;;;5042171;28;20025;-71
2022/04/12 03:03:48;;;;;;;17.65;8.40;;;11.30;98.20;;;;;;5025615;28;20208;-72
2022/04/12 03:06:14;;;;;;;16.38;8.48;;;11.40;98.10;;;;;;5025606;28;20024;-71
2022/04/12 03:08:40;;;;;;;15.98;8.00;;;11.50;98.00;;;;;;5042068;28;20025;-71
2022/04/12 03:11:06;;;;;;;16.70;7.95;;;11.50;97.90;;;;;;5018584;28;20025;-71
2022/04/12 03:13:31;;;;;;;12.43;6.88;;;11.70;97.80;;;;;;5005701;28;20032;-71
2022/04/12 03:15:57;;;;;;;14.55;7.25;;;11.70;97.60;;;;;;5022203;28;20029;-71
2022/04/12 03:18:23;;;;;;;16.83;7.60;;;11.70;97.50;;;;;;5021984;28;20068;-71
2022/04/12 03:20:51;;;;;;;16.83;8.10;;;11.70;97.50;;;;;;5005491;28;20026;-71
2022/04/12 03:23:18;;;;;;;16.20;7.85;;;11.60;97.50;;;;;;5006245;28;20072;-71
2022/04/12 03:25:44;;;;;;;12.85;7.97;;;11.60;97.60;;;;;;5009404;28;20049;-71
2022/04/12 03:28:10;;;;;;;14.23;8.18;;;11.60;97.60;;;;;;5026480;28;20205;-71
2022/04/12 03:30:36;;;;;;;16.73;9.10;;;11.50;97.60;;;;;;5025524;28;20080;-71
2022/04/12 03:33:02;;;;;;;18.75;8.57;;;11.50;97.60;;;;;;5025631;28;20033;-71
2022/04/12 03:35:28;;;;;;;14.13;8.85;;;11.60;97.50;;;;;;5043861;28;20044;-71
2022/04/12 03:37:59;;;;;;;16.45;8.95;;;11.60;97.40;;;;;;5046394;28;20182;-71
2022/04/12 03:40:27;;;;;;;15.90;9.35;;;11.70;97.40;;;;;;5045041;28;20021;-70
2022/04/12 03:42:53;;;;;;;16.27;9.43;;;11.60;97.40;;;;;;5045301;28;20029;-71
2022/04/12 03:45:19;;;;;;;22.25;8.98;;;11.60;97.70;;;;;;5044472;28;20335;-71
2022/04/12 03:47:45;;;;;;;18.13;9.25;;;11.60;97.60;;;;;;5044855;28;20332;-70
2022/04/12 03:50:11;;;;;;;21.17;8.80;;;11.60;97.70;;;;;;5028249;28;20025;-71
2022/04/12 03:52:36;;;;;;;17.27;8.85;;;11.60;97.80;;;;;;5026127;28;20049;-70
2022/04/12 03:55:04;;;;;;;17.33;8.80;;;11.60;97.90;;;;;;5044955;28;20025;-71
2022/04/12 03:57:30;;;;;;;21.02;9.15;;;11.70;97.50;;;;;;5025227;28;20026;-70
2022/04/12 03:59:56;;;;;;;21.20;10.27;;;11.80;97.50;;;;;;5025070;28;20080;-71
2022/04/12 04:02:22;;;;;;;16.48;9.52;;;11.90;97.40;;;;;;5024983;28;20056;-71
2022/04/12 04:04:48;;;;;;;16.73;9.80;;;11.90;97.20;;;;;;5008638;28;20022;-71
2022/04/12 04:07:13;;;;;;;12.63;8.80;;;11.90;97.20;;;;;;5025030;28;20204;-71
2022/04/12 04:09:39;;;;;;;15.13;8.57;;;12.00;97.20;;;;;;5026036;28;20049;-70
2022/04/12 04:12:05;;;;;;;16.98;8.85;;;12.00;97.20;;;;;;5039073;28;20247;-71
2022/04/12 04:14:33;;;;;;;16.40;8.95;;;11.90;97.20;;;;;;5028126;28;20036;-71
2022/04/12 04:17:01;;;;;;;19.63;8.80;;;11.80;97.40;;;;;;5027598;28;20269;-70
2022/04/12 04:19:27;;;;;;;21.92;9.43;;;11.80;97.80;;;;;;5028275;28;20323;-71
2022/04/12 04:21:52;;;;;;;26.48;9.13;;;11.70;98.10;;;;;;5044345;28;20022;-71
2022/04/12 04:24:18;;;;;;;15.15;9.75;;;11.70;98.50;;;;;;5027919;28;20032;-70
2022/04/12 04:26:44;;;;;;;16.30;8.85;;;11.70;98.90;;;;;;5027933;28;20108;-71
2022/04/12 04:29:10;;;;;;;21.95;9.98;;;11.70;99.30;;;;;;5044500;28;20064;-70
2022/04/12 04:31:36;;;;;;;21.20;10.95;;;11.80;99.60;;;;;;5044225;28;20029;-71
2022/04/12 04:34:02;;;;;;;18.98;10.95;;;11.80;99.90;;;;;;5011441;28;20029;-71
2022/04/12 04:36:27;;;;;;;18.92;10.85;;;11.80;99.90;;;;;;5027902;28;20370;-71
2022/04/12 04:38:53;;;;;;;19.67;10.98;;;11.70;99.90;;;;;;5028068;28;20044;-70
2022/04/12 04:41:19;;;;;;;20.63;11.88;;;11.60;99.90;;;;;;5027488;28;20017;-71
2022/04/12 04:43:46;;;;;;;19.77;11.88;;;11.50;99.90;;;;;;5011393;28;20032;-71
2022/04/12 04:46:14;;;;;;;17.15;11.93;;;11.50;99.90;;;;;;5027487;28;20021;-73
2022/04/12 04:48:39;;;;;;;19.40;12.00;;;11.40;99.90;;;;;;5011242;28;20036;-71
2022/04/12 04:51:05;;;;;;;19.27;11.60;;;11.40;99.90;;;;;;5044226;28;20029;-71
2022/04/12 04:53:31;;;;;;;21.40;12.35;;;11.40;99.90;;;;;;5024967;28;20255;-71
2022/04/12 04:55:57;;;;;;;23.52;12.25;;;11.30;99.90;;;;;;5043844;28;20075;-71
2022/04/12 04:58:22;;;;;;;20.05;13.07;;;11.30;99.90;;;;;;5011317;28;20271;-71
2022/04/12 05:00:48;;;;;;;24.55;12.73;;;11.30;99.90;;;;;;5027390;28;20087;-70
2022/04/12 05:03:14;;;;;;;23.58;12.60;;;11.30;99.90;;;;;;5027219;28;20021;-72
2022/04/12 05:05:39;;;;;;;24.77;13.13;;;11.40;99.90;;;;;;5027685;28;20213;-71
2022/04/12 05:08:05;;;;;;;22.35;13.95;;;11.40;99.90;;;;;;5027405;28;20026;-71
2022/04/12 05:10:32;;;;;;;29.60;13.70;;;11.50;99.90;;;;;;5024848;28;20048;-71
2022/04/12 05:13:00;;;;;;;23.35;13.38;;;11.50;99.90;;;;;;5006971;28;20026;-71
2022/04/12 05:15:27;;;;;;;20.30;13.48;;;11.40;99.90;;;;;;5022995;28;20339;-71
2022/04/12 05:17:54;;;;;;;28.13;14.50;;;11.40;99.90;;;;;;5023694;28;20021;-72
2022/04/12 05:20:24;;;;;;;23.88;14.13;;;11.40;99.90;;;;;;4990758;28;20224;-71
2022/04/12 05:22:49;;;;;;;22.70;14.00;;;11.50;99.90;;;;;;4991173;28;20056;-71
2022/04/12 05:25:16;;;;;;;24.10;14.50;;;11.50;99.90;;;;;;5007278;28;20018;-71
2022/04/12 05:27:43;;;;;;;24.08;14.90;;;11.50;99.90;;;;;;5023697;28;20092;-72
2022/04/12 05:30:10;;;;;;;23.85;14.57;;;11.50;99.90;;;;;;5006986;28;20301;-71
2022/04/12 05:32:37;;;;;;;25.15;14.88;;;11.50;99.90;;;;;;5006792;28;20040;-72
2022/04/12 05:35:04;;;;;;;24.77;13.95;;;11.60;99.90;;;;;;5022400;28;20037;-72
2022/04/12 05:37:31;;;;;;;24.92;12.85;;;11.60;99.90;;;;;;5043483;28;20021;-71
2022/04/12 05:39:56;;;;;;;20.45;12.48;;;11.60;99.90;;;;;;5026400;28;20125;-71
2022/04/12 05:42:24;;;;;;;23.27;12.30;;;11.60;99.90;;;;;;5026357;28;20013;-71
2022/04/12 05:44:50;;;;;;;22.48;12.63;;;11.70;99.90;;;;;;5026594;28;20304;-71
2022/04/12 05:47:16;;;;;;;20.23;12.52;;;11.70;99.90;;;;;;5041927;28;20017;-71
2022/04/12 05:49:41;;;;;;;19.75;12.65;;;11.70;99.90;;;;;;5026159;28;20071;-71
2022/04/12 05:52:09;;;;;;;20.70;12.90;;;11.60;99.90;;;;;;5044048;28;20041;-71
2022/04/12 05:54:35;;;;;;;20.83;12.98;;;11.50;99.90;;;;;;5041018;28;20033;-70
2022/04/12 05:57:00;;;;;;;18.85;12.50;;;11.50;99.90;;;;;;5043567;28;20044;-71
2022/04/12 05:59:26;;;;;;;19.75;13.20;;;11.50;99.90;;;;;;5042565;28;20309;-71
2022/04/12 06:01:52;;;;;;;21.60;13.20;;;11.50;99.90;;;;;;5042713;28;20029;-71
2022/04/12 06:04:17;;;;;;;20.23;13.25;;;11.50;99.90;;;;;;5026127;28;20026;-72
2022/04/12 06:06:43;;;;;;;23.20;13.18;;;11.60;99.90;;;;;;5026472;28;20018;-72
2022/04/12 06:09:09;;;;;;;25.65;13.25;;;11.60;99.90;;;;;;5026487;28;20018;-71
2022/04/12 06:11:35;;;;;;;25.85;13.50;;;11.70;99.90;;;;;;5031673;28;20065;-72
2022/04/12 06:14:01;;;;;;;20.13;12.77;;;11.70;99.90;;;;;;5022803;28;20030;-72
2022/04/12 06:16:27;;;;;;;19.20;13.35;;;11.70;99.90;;;;;;5023905;28;20022;-72
2022/04/12 06:18:53;;;;;;;20.70;12.52;;;11.70;99.90;;;;;;4990535;28;20033;-72
2022/04/12 06:21:19;;;;;;;22.00;13.05;;;11.60;99.90;;;;;;5022857;28;20018;-72
2022/04/12 06:23:45;;;;;;;21.88;13.10;;;11.60;99.90;;;;;;5023074;28;20072;-72
2022/04/12 06:26:11;;;;;;;23.08;13.13;;;11.70;99.90;;;;;;5022557;28;20275;-72
2022/04/12 06:28:37;;;;;;;19.90;13.65;;;11.70;99.90;;;;;;5024144;28;20085;-72
2022/04/12 06:31:03;;;;;;;22.00;13.45;;;11.80;99.90;;;;;;5023836;28;20363;-72
2022/04/12 06:33:28;;;;;;;22.95;13.23;;;11.80;99.90;;;;;;5008899;28;20089;-72
2022/04/12 06:35:54;;;;;;;19.42;11.07;;;11.80;99.90;;;;;;5043899;28;20036;-72
2022/04/12 06:38:20;;;;;;;20.33;12.10;;;11.80;99.90;;;;;;5042612;28;20064;-71
2022/04/12 06:40:48;;;;;;;18.80;11.20;;;11.90;99.90;;;;;;5009356;28;20055;-72
2022/04/12 06:43:15;;;;;;;21.98;11.07;;;11.90;99.90;;;;;;5042606;28;20021;-72
2022/04/12 06:45:41;;;;;;;19.65;11.40;;;11.90;99.90;;;;;;5041991;28;20092;-72
2022/04/12 06:48:07;;;;;;;15.68;9.93;;;11.90;99.90;;;;;;5042255;28;20075;-72
2022/04/12 06:50:33;;;;;;;18.40;10.23;;;11.90;99.90;;;;;;5025923;28;20041;-71
2022/04/12 06:53:00;;;;;;;15.63;10.32;;;11.90;99.90;;;;;;5025595;28;20287;-71
2022/04/12 06:55:26;;;;;;;20.50;9.75;;;11.90;99.90;;;;;;5040687;28;20017;-72
2022/04/12 06:57:52;;;;;;;22.33;10.32;;;11.90;99.90;;;;;;5023545;28;20468;-72
2022/04/12 07:00:19;;;;;;;15.48;10.10;;;12.00;99.90;;;;;;5027462;28;20026;-72
2022/04/12 07:02:46;;;;;;;17.08;9.65;;;12.00;99.90;;;;;;5025934;28;20026;-73
2022/04/12 07:05:12;;;;;;;17.00;10.13;;;11.90;99.90;;;;;;5010132;28;20014;-72
2022/04/12 07:07:40;;;;;;;20.35;10.82;;;11.90;99.90;;;;;;5010052;28;20057;-73
2022/04/12 07:10:09;;;;;;;19.10;10.55;;;11.80;99.90;;;;;;5009649;28;20053;-73
2022/04/12 07:12:35;;;;;;;19.38;10.23;;;11.70;99.90;;;;;;5009276;28;20022;-73
2022/04/12 07:15:01;;;;;;;16.10;10.38;;;11.80;99.90;;;;;;5025286;28;20178;-72
2022/04/12 07:17:27;;;;;;;16.42;9.93;;;11.70;99.90;;;;;;5025993;28;20345;-72
2022/04/12 07:19:53;;;;;;;14.55;10.05;;;11.80;99.90;;;;;;5025533;28;20108;-73
2022/04/12 07:22:19;;;;;;;17.67;9.98;;;11.80;99.90;;;;;;5025620;28;20304;-73
2022/04/12 07:24:45;;;;;;;17.23;9.85;;;11.80;99.90;;;;;;5008863;28;20313;-73
2022/04/12 07:27:10;;;;;;;14.40;9.52;;;11.90;99.90;;;;;;5026695;28;20049;-72
2022/04/12 07:29:38;;;;;;;17.40;9.77;;;12.00;99.90;;;;;;5008947;28;20095;-73
2022/04/12 07:32:04;;;;;;;19.55;10.25;;;12.10;99.90;;;;;;5008710;28;20025;-73
2022/04/12 07:34:30;;;;;;;15.30;9.25;;;12.10;99.90;;;;;;5019493;28;20030;-73
2022/04/12 07:36:56;;;;;;;15.57;9.40;;;12.10;99.90;;;;;;5028093;28;20024;-73
2022/04/12 07:39:23;;;;;;;15.75;9.43;;;12.20;99.90;;;;;;5011744;28;20343;-73
2022/04/12 07:41:49;;;;;;;15.52;9.50;;;12.20;99.90;;;;;;5027984;28;20045;-74
2022/04/12 07:44:17;;;;;;;15.30;8.65;;;12.20;99.90;;;;;;5027852;28;20029;-72
2022/04/12 07:46:42;;;;;;;16.88;9.32;;;12.20;99.90;;;;;;5044046;28;20021;-73
2022/04/12 07:49:08;;;;;;;20.77;9.05;;;12.20;99.90;;;;;;5028463;28;20028;-72
2022/04/12 07:51:35;;;;;;;16.25;8.93;;;12.20;99.90;;;;;;5011267;28;20040;-73
2022/04/12 07:54:02;;;;;;;16.40;9.60;;;12.20;99.90;;;;;;5044172;28;20053;-74
2022/04/12 07:56:28;;;;;;;18.05;9.40;;;12.20;99.90;;;;;;5043765;28;20320;-73
2022/04/12 07:58:54;;;;;;;16.15;9.65;;;12.20;99.90;;;;;;5044162;28;20040;-73
2022/04/12 08:01:20;;;;;;;16.85;8.95;;;12.20;99.90;;;;;;5044559;28;20408;-73
2022/04/12 08:03:47;;;;;;;18.92;8.80;;;12.20;99.90;;;;;;5027260;28;20022;-73
2022/04/12 08:06:12;;;;;;;18.02;9.88;;;12.20;99.90;;;;;;5045238;28;20216;-73
2022/04/12 08:08:38;;;;;;;17.33;8.55;;;12.20;99.90;;;;;;5026991;28;20032;-72
2022/04/12 08:11:04;;;;;;;13.13;8.70;;;12.30;99.90;;;;;;5038182;28;20022;-73
2022/04/12 08:13:31;;;;;;;15.40;8.50;;;12.40;99.90;;;;;;5024186;28;20025;-73
2022/04/12 08:15:57;;;;;;;15.52;8.95;;;12.50;99.90;;;;;;5025181;28;20026;-73
2022/04/12 08:18:23;;;;;;;15.30;9.18;;;12.60;99.90;;;;;;5024279;28;20028;-73
2022/04/12 08:20:50;;;;;;;11.80;8.70;;;12.70;99.90;;;;;;5024392;28;20327;-73
2022/04/12 08:23:17;;;;;;;12.93;8.32;;;12.80;99.90;;;;;;5008202;28;20017;-72
2022/04/12 08:25:43;;;;;;;16.15;9.10;;;12.90;99.90;;;;;;5023852;28;20093;-71
2022/04/12 08:28:09;;;;;;;15.30;8.27;;;12.90;99.90;;;;;;5007979;28;20089;-72
2022/04/12 08:30:36;;;;;;;15.10;7.97;;;12.90;99.90;;;;;;5024263;28;20087;-73
2022/04/12 08:33:02;;;;;;;14.15;8.70;;;12.80;99.90;;;;;;5007592;28;20061;-72
2022/04/12 08:35:28;;;;;;;22.00;9.70;;;12.50;99.90;;;;;;5042641;28;20021;-72
2022/04/12 08:37:54;;;;;;;16.40;8.35;;;12.50;99.90;;;;;;5044406;28;20013;-72
2022/04/12 08:40:20;;;;;;;13.25;7.93;;;12.60;99.90;;;;;;5043645;28;20040;-72
2022/04/12 08:42:47;;;;;;;14.82;8.45;;;12.70;99.90;;;;;;5026928;28;20031;-72
2022/04/12 08:45:13;;;;;;;14.82;8.73;;;12.70;99.90;;;;;;5044280;28;20236;-71
2022/04/12 08:47:41;;;;;;;14.10;8.25;;;12.80;99.90;;;;;;5043797;28;20021;-73
2022/04/12 08:50:08;;;;;;;12.45;7.63;;;13.00;99.90;;;;;;5027698;28;20021;-73
2022/04/12 08:52:36;;;;;;;15.18;8.55;;;13.00;99.90;;;;;;5027143;28;20057;-74
2022/04/12 08:55:03;;;;;;;16.42;8.68;;;13.10;99.90;;;;;;5026987;28;20045;-72
2022/04/12 08:57:29;;;;;;;12.43;7.07;;;13.20;99.90;;;;;;5041518;28;20231;-72
2022/04/12 08:59:55;;;;;;;14.32;7.28;;;13.40;99.90;;;;;;5027234;28;20040;-72
2022/04/12 09:02:22;;;;;;;13.77;7.20;;;13.50;99.90;;;;;;5043677;28;20025;-73
2022/04/12 09:04:48;;;;;;;11.23;6.72;;;13.60;99.90;;;;;;5043436;28;20059;-73
2022/04/12 09:07:13;;;;;;;11.45;6.45;;;13.70;99.90;;;;;;5027126;28;20208;-73
2022/04/12 09:09:42;;;;;;;12.27;6.22;;;13.80;99.90;;;;;;5026710;28;20021;-73
2022/04/12 09:12:10;;;;;;;10.73;6.50;;;13.80;99.90;;;;;;5028267;28;20049;-72
2022/04/12 09:14:52;;;;;;;15.00;6.65;;;13.80;99.90;;;;;;5024264;28;20064;-73
2022/04/12 09:17:26;;;;;;;9.93;6.10;;;13.90;99.90;;;;;;5023049;28;20335;-74
2022/04/12 09:19:52;;;;;;;11.30;6.43;;;14.00;99.90;;;;;;5007250;28;20229;-72
2022/04/12 09:22:21;;;;;;;10.18;6.47;;;14.10;99.90;;;;;;5007112;28;20026;-72
2022/04/12 09:24:50;;;;;;;14.43;6.78;;;14.00;99.90;;;;;;5023038;28;20401;-73
2022/04/12 09:27:19;;;;;;;11.38;6.07;;;14.10;99.90;;;;;;5006812;28;20022;-74
2022/04/12 09:29:47;;;;;;;14.45;6.03;;;14.20;99.90;;;;;;4990990;28;20100;-74
2022/04/12 09:32:15;;;;;;;11.93;6.00;;;14.20;99.90;;;;;;5006562;28;20024;-73
2022/04/12 09:34:43;;;;;;;14.63;5.70;;;14.10;99.90;;;;;;5019108;28;20033;-73
2022/04/12 09:37:30;;;;;;;10.98;6.28;;;14.30;99.90;;;;;;5010095;28;20087;-73
2022/04/12 09:40:14;;;;;;;16.48;5.20;;;14.40;99.90;;;;;;5029515;28;20296;-73
2022/04/12 09:42:49;;;;;;;12.70;4.90;;;14.80;99.90;;;;;;5042969;28;20059;-73
2022/04/12 09:45:30;;;;;;;13.65;5.10;;;15.10;99.90;;;;;;5009369;28;20021;-74
2022/04/12 09:47:57;;;;;;;14.15;4.63;;;15.30;99.90;;;;;;5023075;28;20267;-73
2022/04/12 09:50:26;;;;;;;12.43;4.70;;;15.20;99.90;;;;;;5023064;28;20049;-72
2022/04/12 09:52:56;;;;;;;12.73;4.65;;;15.20;99.90;;;;;;5006343;28;20367;-73
2022/04/12 09:55:40;;;;;;;16.67;4.47;;;15.20;99.90;;;;;;5023276;28;20025;-73
2022/04/12 09:58:09;;;;;;;16.38;4.65;;;15.10;99.90;;;;;;5024517;28;20320;-72
2022/04/12 10:00:38;;;;;;;11.90;4.20;;;15.00;99.90;;;;;;5010339;28;20029;-72
2022/04/12 10:03:06;;;;;;;14.63;3.92;;;14.90;99.90;;;;;;5042592;28;20037;-72
2022/04/12 10:05:33;;;;;;;14.40;4.18;;;15.00;99.90;;;;;;5026619;28;20314;-71
2022/04/12 10:08:01;;;;;;;18.05;5.18;;;14.90;99.90;;;;;;5042406;28;20021;-73
2022/04/12 10:10:27;;;;;;;23.50;5.53;;;14.70;99.90;;;;;;5042708;28;20029;-72
2022/04/12 10:12:54;;;;;;;20.23;5.78;;;14.70;99.90;;;;;;5025592;28;20239;-74
2022/04/12 10:15:20;;;;;;;18.58;6.25;;;14.60;99.90;;;;;;5042002;28;20030;-73
2022/04/12 10:17:48;;;;;;;17.17;5.20;;;14.60;99.90;;;;;;5026112;28;20260;-73
2022/04/12 10:20:15;;;;;;;22.02;5.13;;;14.60;99.90;;;;;;5026119;28;20025;-74
2022/04/12 10:22:42;;;;;;;15.85;4.85;;;14.70;99.90;;;;;;5026189;28;20216;-74
2022/04/12 10:25:09;;;;;;;33.30;5.95;;;14.60;99.90;;;;;;5041911;28;20101;-73
2022/04/12 10:27:36;;;;;;;23.95;5.38;;;14.50;99.90;;;;;;5042561;28;20030;-73
2022/04/12 10:30:25;;;;;;;20.02;5.35;;;14.50;99.90;;;;;;5042563;28;20025;-73
2022/04/12 10:33:08;;;;;;;18.05;4.72;;;14.60;99.90;;;;;;5027622;28;20030;-73
2022/04/12 10:35:56;;;;;;;20.80;5.20;;;14.50;99.90;;;;;;5026584;28;20253;-73
2022/04/12 10:38:25;;;;;;;23.75;5.35;;;14.60;99.90;;;;;;5012855;28;20248;-73
2022/04/12 10:40:53;;;;;;;19.70;4.68;;;14.50;99.90;;;;;;5010301;28;20313;-73
2022/04/12 10:43:29;;;;;;;21.17;5.20;;;14.70;99.90;;;;;;4994084;28;20025;-73
2022/04/12 10:45:56;;;;;;;37.60;6.50;;;14.60;99.90;;;;;;5026083;28;20097;-71
2022/04/12 10:48:25;;;;;;;32.00;5.85;;;14.70;99.90;;;;;;5046422;28;20024;-71
2022/04/12 10:50:55;;;;;;;24.08;5.63;;;14.90;99.90;;;;;;5045665;28;20025;-72
2022/04/12 10:53:55;;;;;;;23.70;4.97;;;15.00;99.90;;;;;;5045581;28;20049;-73
2022/04/12 10:56:25;;;;;;;27.05;5.28;;;14.90;99.90;;;;;;5017812;28;20037;-72
2022/04/12 10:58:51;;;;;;;25.05;5.70;;;15.00;99.90;;;;;;5024245;28;20025;-72
2022/04/12 11:01:34;;;;;;;22.48;5.85;;;15.20;99.90;;;;;;5009607;28;20018;-74
2022/04/12 11:04:02;;;;;;;20.88;5.22;;;15.40;99.90;;;;;;5025981;28;20233;-73
2022/04/12 11:06:31;;;;;;;19.80;5.15;;;15.60;99.90;;;;;;5026257;28;20022;-73
2022/04/12 11:09:16;;;;;;;17.55;4.93;;;15.60;99.90;;;;;;5009848;28;20270;-73
2022/04/12 11:11:45;;;;;;;20.30;5.40;;;15.50;99.90;;;;;;5027239;28;20025;-73
2022/04/12 11:14:32;;;;;;;25.90;5.40;;;15.60;99.90;;;;;;4993710;28;20072;-73
2022/04/12 11:17:06;;;;;;;28.48;5.43;;;15.60;99.90;;;;;;4995489;28;20021;-72
2022/04/12 11:19:50;;;;;;;36.38;5.78;;;15.70;99.90;;;;;;5009550;28;20022;-74
2022/04/12 11:22:19;;;;;;;33.80;6.13;;;15.80;99.90;;;;;;5009552;28;20053;-73
2022/04/12 11:25:12;;;;;;;29.30;5.72;;;15.80;99.90;;;;;;5026040;28;20022;-72
2022/04/12 11:27:38;;;;;;;20.33;4.90;;;15.80;99.90;;;;;;4997006;28;20025;-73
2022/04/12 11:30:04;;;;;;;19.73;5.30;;;15.90;99.90;;;;;;5009068;28;20029;-72
2022/04/12 11:32:32;;;;;;;21.80;5.38;;;15.90;99.90;;;;;;5009098;28;20100;-73
2022/04/12 11:34:59;;;;;;;26.85;5.85;;;15.90;99.90;;;;;;5040009;28;20035;-73
2022/04/12 11:37:25;;;;;;;24.20;5.32;;;16.00;99.90;;;;;;5045033;28;20026;-73
2022/04/12 11:39:51;;;;;;;23.48;5.07;;;16.20;99.90;;;;;;5045262;28;20090;-73
2022/04/12 11:42:17;;;;;;;19.63;5.10;;;16.40;99.90;;;;;;5045488;28;20256;-73
2022/04/12 11:44:54;;;;;;;18.67;5.05;;;16.40;99.90;;;;;;5027383;28;20040;-73
2022/04/12 11:47:25;;;;;;;22.10;5.38;;;16.50;99.90;;;;;;5028015;28;20051;-73
2022/04/12 11:49:51;;;;;;;22.10;5.75;;;16.70;99.90;;;;;;5044742;28;20021;-75
2022/04/12 11:52:17;;;;;;;19.92;4.82;;;16.70;99.90;;;;;;5011791;28;20061;-74
2022/04/12 11:54:46;;;;;;;21.40;4.82;;;16.70;99.90;;;;;;5045211;28;20076;-74
2022/04/12 11:57:17;;;;;;;18.55;4.50;;;16.80;99.90;;;;;;5025453;28;20054;-75
2022/04/12 11:59:50;;;;;;;29.48;5.22;;;16.70;99.90;;;;;;5007774;28;20101;-75
2022/04/12 12:02:18;;;;;;;28.40;5.72;;;16.60;99.90;;;;;;5024874;28;20105;-74
2022/04/12 12:04:46;;;;;;;28.90;4.75;;;16.50;99.90;;;;;;5009028;28;20025;-75
2022/04/12 12:07:13;;;;;;;20.83;5.38;;;16.50;99.90;;;;;;5008487;28;20324;-72
2022/04/12 12:09:49;;;;;;;20.23;5.35;;;16.30;99.90;;;;;;5024942;28;20306;-73
2022/04/12 12:12:17;;;;;;;36.58;5.57;;;16.40;99.90;;;;;;5037859;28;20025;-73
2022/04/12 12:14:43;;;;;;;23.42;5.10;;;16.40;99.90;;;;;;5024888;28;20029;-72
2022/04/12 12:17:12;;;;;;;22.52;4.78;;;16.40;99.90;;;;;;5008531;28;20025;-73
2022/04/12 12:19:39;;;;;;;24.58;4.68;;;16.40;99.90;;;;;;5025216;28;20089;-73
2022/04/12 12:22:08;;;;;;;17.70;4.25;;;16.20;99.90;;;;;;5024498;28;20044;-72
2022/04/12 12:24:37;;;;;;;24.85;4.78;;;16.20;99.90;;;;;;5008566;28;20256;-72
2022/04/12 12:27:04;;;;;;;29.73;4.53;;;16.20;99.90;;;;;;5024451;28;20034;-73
2022/04/12 12:29:36;;;;;;;27.90;5.32;;;16.10;99.90;;;;;;5007810;28;20172;-73
2022/04/12 12:32:02;;;;;;;;;;;16.20;99.90;;;;;;5008667;28;20248;-73
2022/04/12 12:34:30;;;;;;;18.95;4.38;;;16.30;99.90;;;;;;5035086;28;19928;-72
2022/04/12 12:36:56;;;;;;;24.00;5.30;;;16.30;99.90;;;;;;5027518;28;20025;-73
2022/04/12 12:39:26;;;;;;;17.15;4.57;;;16.40;99.90;;;;;;5044262;28;20216;-74